Time;durP1;ratioP1;P1;durP2;ratioP2;P2;SDS_P1;SDS_P2;PMS_P1;PMS_P2;Temp;Humidity;BMP_temperature;BMP_pressure;BME280_temperature;BME280_humidity;BME280_pressure;Samples;Min_cycle;Max_cycle;Signal;HPM_P1;HPM_P2
2022/11/07 00:00:21;;;;;;;0.57;0.57;;;7.40;99.90;;;;;;5076035;28;20228;-79
2022/11/07 00:02:47;;;;;;;0.57;0.57;;;7.40;99.90;;;;;;5076749;28;20661;-80
2022/11/07 00:05:12;;;;;;;0.60;0.60;;;7.40;99.90;;;;;;5076484;28;20214;-81
2022/11/07 00:07:38;;;;;;;2.28;1.73;;;7.40;99.90;;;;;;5075917;28;20296;-80
2022/11/07 00:10:05;;;;;;;0.50;0.50;;;7.50;99.90;;;;;;5076912;28;20254;-79
2022/11/07 00:12:35;;;;;;;0.50;0.50;;;7.50;99.90;;;;;;5076717;28;20200;-80
2022/11/07 00:15:05;;;;;;;0.60;0.60;;;7.50;99.90;;;;;;5076757;28;20232;-80
2022/11/07 00:17:34;;;;;;;0.68;0.68;;;7.50;99.90;;;;;;5078249;28;20652;-80
2022/11/07 00:19:59;;;;;;;0.50;0.50;;;7.60;99.90;;;;;;5077143;28;20197;-80
2022/11/07 00:22:25;;;;;;;0.50;0.50;;;7.60;99.90;;;;;;5076496;28;20251;-78
2022/11/07 00:24:51;;;;;;;0.52;0.52;;;7.60;99.90;;;;;;5081618;28;20191;-79
2022/11/07 00:27:17;;;;;;;0.70;0.70;;;7.60;99.90;;;;;;5096805;28;20614;-79
2022/11/07 00:29:42;;;;;;;0.70;0.70;;;7.60;99.90;;;;;;5096765;28;20212;-79
2022/11/07 00:32:08;;;;;;;0.50;0.50;;;7.70;99.90;;;;;;5096582;28;20192;-79
2022/11/07 00:34:34;;;;;;;0.95;0.95;;;7.70;99.90;;;;;;5097877;28;20188;-79
2022/11/07 00:37:01;;;;;;;0.70;0.70;;;7.80;99.90;;;;;;5097351;28;20219;-79
2022/11/07 00:39:27;;;;;;;0.57;0.57;;;7.90;99.90;;;;;;5096641;28;20199;-80
2022/11/07 00:41:53;;;;;;;0.90;0.90;;;7.90;99.90;;;;;;5096911;28;20200;-80
2022/11/07 00:44:23;;;;;;;13.35;1.27;;;8.00;99.90;;;;;;5096517;28;20287;-79
2022/11/07 00:46:49;;;;;;;1.85;0.77;;;8.10;99.90;;;;;;5097512;28;20619;-79
2022/11/07 00:49:15;;;;;;;1.85;1.10;;;8.10;99.90;;;;;;5096864;28;20192;-79
2022/11/07 00:51:41;;;;;;;0.40;0.40;;;8.20;99.90;;;;;;5097164;28;20200;-79
2022/11/07 00:54:07;;;;;;;0.82;0.82;;;8.20;99.90;;;;;;5095834;28;20200;-79
2022/11/07 00:56:36;;;;;;;0.70;0.70;;;8.30;99.90;;;;;;5097126;28;20203;-79
2022/11/07 00:59:05;;;;;;;0.60;0.60;;;8.40;99.90;;;;;;5096561;28;20192;-79
2022/11/07 01:01:32;;;;;;;0.80;0.80;;;8.40;99.90;;;;;;5097122;28;20208;-79
2022/11/07 01:06:45;;;;;;;0.73;0.73;;;8.50;99.90;;;;;;5097820;28;20191;-79
2022/11/07 01:09:19;;;;;;;0.60;0.60;;;8.50;99.90;;;;;;5096652;28;20282;-79
2022/11/07 01:11:46;;;;;;;0.50;0.50;;;8.50;99.90;;;;;;5096298;28;20199;-78
2022/11/07 01:14:15;;;;;;;0.57;0.57;;;8.60;99.90;;;;;;5098343;28;20192;-79
2022/11/07 01:16:43;;;;;;;0.60;0.60;;;8.60;99.90;;;;;;5117721;28;20243;-79
2022/11/07 01:19:10;;;;;;;0.77;0.77;;;8.70;99.90;;;;;;5099845;28;20192;-79
2022/11/07 01:21:40;;;;;;;0.60;0.60;;;8.70;99.90;;;;;;5118327;28;20562;-79
2022/11/07 01:24:08;;;;;;;0.70;0.70;;;8.70;99.90;;;;;;5115973;28;20196;-79
2022/11/07 01:26:36;;;;;;;0.60;0.60;;;8.70;99.90;;;;;;5099395;28;20200;-79
2022/11/07 01:29:03;;;;;;;0.65;0.65;;;8.70;99.90;;;;;;5099486;28;20237;-79
2022/11/07 01:31:30;;;;;;;0.50;0.50;;;8.80;99.90;;;;;;5098661;28;20215;-79
2022/11/07 01:34:00;;;;;;;0.60;0.60;;;8.70;99.90;;;;;;5098145;28;20196;-79
2022/11/07 01:36:26;;;;;;;0.60;0.60;;;8.70;99.90;;;;;;5116161;28;20219;-79
2022/11/07 01:38:52;;;;;;;0.60;0.60;;;8.80;99.90;;;;;;5116233;28;20187;-80
2022/11/07 01:41:24;;;;;;;0.63;0.63;;;8.80;99.90;;;;;;5115542;28;20196;-79
2022/11/07 01:44:08;;;;;;;0.60;0.60;;;8.80;99.90;;;;;;5116419;28;20705;-79
2022/11/07 01:46:39;;;;;;;0.65;0.65;;;8.80;99.90;;;;;;5115504;28;20538;-79
2022/11/07 01:49:21;;;;;;;0.60;0.60;;;8.80;99.90;;;;;;5097647;28;20257;-79
2022/11/07 01:52:00;;;;;;;1.10;0.93;;;8.80;99.90;;;;;;5116598;28;20207;-80
2022/11/07 01:54:37;;;;;;;0.50;0.50;;;8.80;99.90;;;;;;5098263;28;20196;-79
2022/11/07 01:57:13;;;;;;;0.52;0.52;;;8.80;99.90;;;;;;5097884;28;20195;-79
2022/11/07 01:59:45;;;;;;;0.60;0.60;;;8.80;99.90;;;;;;5097365;28;20684;-80
2022/11/07 02:02:19;;;;;;;0.50;0.50;;;8.80;99.90;;;;;;5097762;28;20650;-79
2022/11/07 02:04:45;;;;;;;0.60;0.60;;;8.80;99.90;;;;;;5097504;28;20565;-79
2022/11/07 02:07:22;;;;;;;0.60;0.60;;;8.80;99.90;;;;;;5115662;28;20199;-79
2022/11/07 02:09:51;;;;;;;0.40;0.40;;;8.90;99.90;;;;;;5097235;28;20673;-78
2022/11/07 02:12:18;;;;;;;0.60;0.60;;;8.90;99.90;;;;;;5080321;28;20691;-80
2022/11/07 02:14:44;;;;;;;0.60;0.60;;;8.80;99.90;;;;;;5097784;28;20776;-80
2022/11/07 02:17:11;;;;;;;0.65;0.65;;;8.90;99.90;;;;;;5097465;28;20308;-79
2022/11/07 02:19:47;;;;;;;1.10;1.02;;;8.90;99.90;;;;;;5097282;28;20275;-80
2022/11/07 02:22:19;;;;;;;0.50;0.50;;;8.90;99.90;;;;;;5097171;28;20281;-79
2022/11/07 02:24:48;;;;;;;0.52;0.52;;;8.90;99.90;;;;;;5097168;28;20187;-80
2022/11/07 02:27:18;;;;;;;0.82;0.82;;;8.90;99.90;;;;;;5097804;28;20646;-80
2022/11/07 02:29:48;;;;;;;0.55;0.55;;;8.90;99.90;;;;;;5115736;28;20690;-80
2022/11/07 02:32:14;;;;;;;0.70;0.70;;;8.90;99.90;;;;;;5115946;28;20677;-80
2022/11/07 02:34:39;;;;;;;0.60;0.60;;;8.90;99.90;;;;;;5097028;28;20195;-80
2022/11/07 02:37:17;;;;;;;0.60;0.60;;;8.90;99.90;;;;;;5115750;28;20252;-80
2022/11/07 02:39:42;;;;;;;0.50;0.50;;;8.90;99.90;;;;;;5115357;28;20198;-81
2022/11/07 02:42:09;;;;;;;0.60;0.60;;;9.00;99.90;;;;;;5096481;28;20199;-80
2022/11/07 02:44:35;;;;;;;0.52;0.52;;;8.90;99.90;;;;;;5096947;28;20223;-80
2022/11/07 02:47:00;;;;;;;0.63;0.63;;;8.90;99.90;;;;;;5098048;28;20215;-79
2022/11/07 02:49:29;;;;;;;0.50;0.50;;;8.90;99.90;;;;;;5097701;28;20245;-79
2022/11/07 02:51:58;;;;;;;0.55;0.55;;;8.90;99.90;;;;;;5098843;28;20196;-80
2022/11/07 02:54:23;;;;;;;0.60;0.60;;;8.90;99.90;;;;;;5098887;28;20195;-79
2022/11/07 02:56:52;;;;;;;0.60;0.60;;;8.90;99.90;;;;;;5099685;28;20217;-79
2022/11/07 02:59:20;;;;;;;0.50;0.50;;;8.90;99.90;;;;;;5098348;28;20240;-80
2022/11/07 03:01:48;;;;;;;0.70;0.70;;;8.90;99.90;;;;;;5097525;28;20286;-78
2022/11/07 03:04:14;;;;;;;0.60;0.60;;;8.90;99.90;;;;;;5097811;28;20657;-79
2022/11/07 03:06:46;;;;;;;0.82;0.82;;;8.90;99.90;;;;;;5097552;28;20244;-79
2022/11/07 03:09:12;;;;;;;0.50;0.50;;;9.00;99.90;;;;;;5097008;28;20187;-79
2022/11/07 03:11:37;;;;;;;0.68;0.68;;;9.00;99.90;;;;;;5097786;28;20209;-79
2022/11/07 03:14:03;;;;;;;0.60;0.60;;;8.90;99.90;;;;;;5097314;28;20294;-80
2022/11/07 03:16:32;;;;;;;0.60;0.60;;;9.00;99.90;;;;;;5115204;28;20274;-80
2022/11/07 03:19:00;;;;;;;0.70;0.70;;;9.00;99.90;;;;;;5096347;28;20238;-80
2022/11/07 03:21:25;;;;;;;0.85;0.85;;;9.00;99.90;;;;;;5096062;28;20196;-79
2022/11/07 03:23:51;;;;;;;0.60;0.60;;;9.00;99.90;;;;;;5095010;28;20200;-80
2022/11/07 03:26:17;;;;;;;1.52;0.90;;;8.90;99.90;;;;;;5116453;27;20203;-80
2022/11/07 03:28:42;;;;;;;0.60;0.60;;;9.00;99.90;;;;;;5134988;27;20199;-80
2022/11/07 03:31:08;;;;;;;0.50;0.50;;;9.00;99.90;;;;;;5136233;27;20247;-79
2022/11/07 03:33:34;;;;;;;0.63;0.63;;;9.00;99.90;;;;;;5118929;28;20198;-80
2022/11/07 03:36:00;;;;;;;0.52;0.52;;;9.00;99.90;;;;;;5096151;28;20222;-80
2022/11/07 03:38:25;;;;;;;0.60;0.60;;;9.00;99.90;;;;;;5114373;28;20195;-80
2022/11/07 03:40:51;;;;;;;0.60;0.60;;;9.00;99.90;;;;;;5114323;28;20199;-80
2022/11/07 03:43:17;;;;;;;0.60;0.60;;;9.00;99.90;;;;;;5096264;28;20669;-80
2022/11/07 03:45:43;;;;;;;0.68;0.68;;;9.10;99.90;;;;;;5114500;28;20203;-80
2022/11/07 03:48:08;;;;;;;0.52;0.52;;;9.10;99.90;;;;;;5096383;28;20532;-79
2022/11/07 03:50:34;;;;;;;0.40;0.40;;;9.10;99.90;;;;;;5095887;28;20206;-80
2022/11/07 03:53:00;;;;;;;0.52;0.52;;;9.10;99.90;;;;;;5096260;28;20215;-79
2022/11/07 03:55:25;;;;;;;0.75;0.75;;;9.10;99.90;;;;;;5113951;28;20191;-79
2022/11/07 03:57:51;;;;;;;0.60;0.60;;;9.10;99.90;;;;;;5095568;28;20244;-79
2022/11/07 04:00:17;;;;;;;1.13;1.00;;;9.10;99.90;;;;;;5112122;28;20720;-79
2022/11/07 04:02:43;;;;;;;0.70;0.60;;;9.10;99.90;;;;;;5106792;28;20195;-79
2022/11/07 04:05:12;;;;;;;0.73;0.73;;;9.10;99.90;;;;;;5114661;28;20244;-78
2022/11/07 04:07:38;;;;;;;0.85;0.85;;;9.10;99.90;;;;;;5095753;28;20210;-80
2022/11/07 04:10:04;;;;;;;0.60;0.60;;;9.20;99.90;;;;;;5095239;28;20200;-80
2022/11/07 04:17:59;;;;;;;0.60;0.60;;;9.10;99.90;;;;;;5113395;28;20210;-80
2022/11/07 04:20:28;;;;;;;1.10;1.02;;;9.10;99.90;;;;;;5113632;28;20183;-79
2022/11/07 04:22:57;;;;;;;0.63;0.63;;;9.20;99.90;;;;;;5094650;28;20571;-80
2022/11/07 04:28:16;;;;;;;0.70;0.70;;;9.10;99.90;;;;;;5113994;28;20213;-80
2022/11/07 04:30:45;;;;;;;0.95;0.68;;;9.10;99.90;;;;;;5095655;28;20701;-81
2022/11/07 04:33:10;;;;;;;0.60;0.60;;;9.20;99.90;;;;;;5096049;28;20192;-82
2022/11/07 04:35:36;;;;;;;1.42;1.13;;;9.20;99.90;;;;;;5115588;28;20689;-81
2022/11/07 04:38:02;;;;;;;0.82;0.82;;;9.10;99.90;;;;;;5117691;28;20188;-81
2022/11/07 04:40:28;;;;;;;0.95;0.95;;;9.10;99.90;;;;;;5079482;28;20199;-80
2022/11/07 04:42:55;;;;;;;0.60;0.60;;;9.20;99.90;;;;;;5078907;28;20196;-80
2022/11/07 04:45:21;;;;;;;0.88;0.88;;;9.20;99.90;;;;;;5078975;28;20569;-80
2022/11/07 04:47:49;;;;;;;0.60;0.60;;;9.20;99.90;;;;;;5096959;28;20278;-80
2022/11/07 04:50:19;;;;;;;0.50;0.50;;;9.20;99.90;;;;;;5078900;28;20208;-80
2022/11/07 04:52:46;;;;;;;0.50;0.50;;;9.20;99.90;;;;;;5096507;28;20561;-79
2022/11/07 04:55:21;;;;;;;0.70;0.70;;;9.20;99.90;;;;;;5071663;28;20657;-80
2022/11/07 04:57:47;;;;;;;0.50;0.50;;;9.20;99.90;;;;;;5098615;28;20282;-79
2022/11/07 05:00:14;;;;;;;0.60;0.60;;;9.20;99.90;;;;;;5098838;28;20236;-80
2022/11/07 05:02:40;;;;;;;0.60;0.60;;;9.10;99.90;;;;;;5098989;28;20692;-79
2022/11/07 05:05:07;;;;;;;0.60;0.60;;;9.20;99.90;;;;;;5118069;28;20191;-80
2022/11/07 05:07:32;;;;;;;0.60;0.60;;;9.20;99.90;;;;;;5082644;28;20227;-81
2022/11/07 05:09:58;;;;;;;0.70;0.70;;;9.20;99.90;;;;;;5099456;28;20826;-81
2022/11/07 05:12:27;;;;;;;0.60;0.60;;;9.20;99.90;;;;;;5099104;28;20208;-82
2022/11/07 05:14:52;;;;;;;0.50;0.50;;;9.20;99.90;;;;;;5095693;28;20212;-81
2022/11/07 05:17:18;;;;;;;0.60;0.60;;;9.20;99.90;;;;;;5095961;28;20329;-81
2022/11/07 05:19:44;;;;;;;1.17;1.08;;;9.20;99.90;;;;;;5095755;28;20291;-81
2022/11/07 05:25:00;;;;;;;0.60;0.60;;;9.20;99.90;;;;;;5093736;28;20245;-81
2022/11/07 05:27:26;;;;;;;0.60;0.60;;;9.20;99.90;;;;;;5096008;28;20224;-83
2022/11/07 05:29:52;;;;;;;0.60;0.60;;;9.20;99.90;;;;;;5096095;28;20246;-83
2022/11/07 05:32:21;;;;;;;1.23;1.13;;;9.20;99.90;;;;;;5095818;28;20196;-80
2022/11/07 05:34:51;;;;;;;0.50;0.50;;;9.10;99.90;;;;;;5096956;28;20188;-83
2022/11/07 05:37:17;;;;;;;0.40;0.40;;;9.10;99.90;;;;;;5095302;28;20203;-80
2022/11/07 05:39:42;;;;;;;0.50;0.50;;;9.10;99.90;;;;;;5094729;28;20200;-80
2022/11/07 05:42:08;;;;;;;0.80;0.80;;;9.00;99.90;;;;;;5095576;28;20242;-81
2022/11/07 05:44:34;;;;;;;0.57;0.57;;;9.00;99.90;;;;;;5095802;28;20548;-83
2022/11/07 05:47:00;;;;;;;0.60;0.60;;;9.00;99.90;;;;;;5094655;28;20205;-82
2022/11/07 05:49:28;;;;;;;0.52;0.52;;;8.90;99.90;;;;;;5094847;28;20698;-80
2022/11/07 05:51:54;;;;;;;0.60;0.60;;;8.90;99.90;;;;;;5095088;28;20691;-80
2022/11/07 05:54:20;;;;;;;0.80;0.80;;;8.90;99.90;;;;;;5094888;28;20709;-80
2022/11/07 05:56:46;;;;;;;0.70;0.70;;;8.80;99.90;;;;;;5095015;28;20192;-80
2022/11/07 05:59:12;;;;;;;0.50;0.50;;;8.80;99.90;;;;;;5094857;28;20199;-80
2022/11/07 06:01:38;;;;;;;0.77;0.77;;;8.70;99.90;;;;;;5094643;28;20654;-81
2022/11/07 06:04:05;;;;;;;0.50;0.50;;;8.70;99.90;;;;;;5094340;28;20204;-80
2022/11/07 06:06:30;;;;;;;0.60;0.60;;;8.70;99.90;;;;;;5094562;28;20651;-80
2022/11/07 06:08:59;;;;;;;0.50;0.50;;;8.70;99.90;;;;;;5094645;28;20211;-80
2022/11/07 06:11:25;;;;;;;0.57;0.57;;;8.70;99.90;;;;;;5094321;28;20253;-80
2022/11/07 06:13:53;;;;;;;0.63;0.63;;;8.60;99.90;;;;;;5096181;28;20216;-82
2022/11/07 06:16:19;;;;;;;0.50;0.50;;;8.60;99.90;;;;;;5094361;28;20308;-80
2022/11/07 06:18:48;;;;;;;0.70;0.70;;;8.70;99.90;;;;;;5094872;28;20655;-79
2022/11/07 06:21:15;;;;;;;0.60;0.60;;;8.60;99.90;;;;;;5096264;28;20204;-79
2022/11/07 06:23:41;;;;;;;0.60;0.60;;;8.60;99.90;;;;;;5094564;28;20204;-79
2022/11/07 06:26:07;;;;;;;0.60;0.60;;;8.60;99.90;;;;;;5094981;28;20204;-79
2022/11/07 06:28:33;;;;;;;0.93;0.77;;;8.60;99.90;;;;;;5094988;28;20250;-79
2022/11/07 06:31:06;;;;;;;0.60;0.60;;;8.60;99.90;;;;;;5093842;28;20216;-79
2022/11/07 06:33:32;;;;;;;0.50;0.50;;;8.60;99.90;;;;;;5093682;28;20238;-79
2022/11/07 06:36:10;;;;;;;0.50;0.50;;;8.60;99.90;;;;;;5094872;28;20196;-79
2022/11/07 06:38:37;;;;;;;0.60;0.60;;;8.60;99.90;;;;;;5093319;28;20252;-79
2022/11/07 06:41:05;;;;;;;0.50;0.50;;;8.60;99.90;;;;;;5092858;28;20681;-79
2022/11/07 06:43:31;;;;;;;0.60;0.60;;;8.60;99.90;;;;;;5093546;28;20196;-80
2022/11/07 06:46:05;;;;;;;0.55;0.55;;;8.70;99.90;;;;;;5094571;28;20267;-79
2022/11/07 06:48:32;;;;;;;0.57;0.57;;;8.60;99.90;;;;;;5094497;28;20203;-79
2022/11/07 06:51:00;;;;;;;0.70;0.70;;;8.60;99.90;;;;;;5093993;28;20701;-79
2022/11/07 06:53:27;;;;;;;0.70;0.70;;;8.70;99.90;;;;;;5094709;28;20689;-79
2022/11/07 06:55:53;;;;;;;0.60;0.60;;;8.70;99.90;;;;;;5094070;28;20192;-78
2022/11/07 06:58:20;;;;;;;1.35;0.90;;;8.70;99.90;;;;;;5060499;28;20204;-80
2022/11/07 07:00:46;;;;;;;0.60;0.60;;;8.70;99.90;;;;;;5093638;28;20239;-79
2022/11/07 07:03:12;;;;;;;0.60;0.60;;;8.70;99.90;;;;;;5094502;28;20561;-79
2022/11/07 07:05:38;;;;;;;0.70;0.70;;;8.70;99.90;;;;;;5092893;28;20314;-79
2022/11/07 07:08:06;;;;;;;1.10;1.00;;;8.70;99.90;;;;;;5093262;28;20594;-78
2022/11/07 07:10:43;;;;;;;2.40;1.02;;;8.70;99.90;;;;;;5094243;28;20574;-78
2022/11/07 07:13:13;;;;;;;0.63;0.63;;;8.60;99.90;;;;;;5093063;28;20622;-78
2022/11/07 07:15:38;;;;;;;0.50;0.50;;;8.70;99.90;;;;;;5106370;28;20252;-79
2022/11/07 07:18:04;;;;;;;0.50;0.50;;;8.70;99.90;;;;;;5111766;28;20199;-79
2022/11/07 07:20:30;;;;;;;0.50;0.50;;;8.60;99.90;;;;;;5096306;28;20195;-79
2022/11/07 07:22:56;;;;;;;0.50;0.50;;;8.60;99.90;;;;;;5096769;28;20196;-79
2022/11/07 07:25:22;;;;;;;0.60;0.60;;;8.60;99.90;;;;;;5096328;28;20670;-80
2022/11/07 07:27:47;;;;;;;0.77;0.77;;;8.70;99.90;;;;;;5096114;28;20191;-79
2022/11/07 07:30:14;;;;;;;0.60;0.60;;;8.60;99.90;;;;;;5115222;28;20721;-79
2022/11/07 07:32:39;;;;;;;0.63;0.63;;;8.60;99.90;;;;;;5114805;28;20193;-80
2022/11/07 07:35:06;;;;;;;0.50;0.50;;;8.50;99.90;;;;;;5095973;28;20244;-79
2022/11/07 07:37:32;;;;;;;0.60;0.60;;;8.50;99.90;;;;;;5096453;28;20191;-80
2022/11/07 07:39:58;;;;;;;0.88;0.88;;;8.50;99.90;;;;;;5096501;28;20210;-79
2022/11/07 07:42:24;;;;;;;0.60;0.60;;;8.50;99.90;;;;;;5096210;28;20650;-80
2022/11/07 07:44:50;;;;;;;0.60;0.60;;;8.50;99.90;;;;;;5096071;28;20195;-79
2022/11/07 07:47:18;;;;;;;0.60;0.60;;;8.40;99.90;;;;;;5095655;28;20230;-80
2022/11/07 07:49:44;;;;;;;0.50;0.50;;;8.40;99.90;;;;;;5114143;28;20294;-80
2022/11/07 07:52:10;;;;;;;3.83;1.08;;;8.40;99.90;;;;;;5114162;28;20221;-80
2022/11/07 07:54:36;;;;;;;0.55;0.55;;;8.40;99.90;;;;;;5095710;28;20192;-80
2022/11/07 07:57:02;;;;;;;0.60;0.60;;;8.40;99.90;;;;;;5079458;28;20183;-81
2022/11/07 07:59:31;;;;;;;0.60;0.60;;;8.30;99.90;;;;;;5095775;28;20199;-80
2022/11/07 08:01:57;;;;;;;0.50;0.50;;;8.40;99.90;;;;;;5114787;28;20665;-81
2022/11/07 08:04:22;;;;;;;0.60;0.60;;;8.30;99.90;;;;;;5095629;28;20199;-80
2022/11/07 08:06:48;;;;;;;0.93;0.80;;;8.30;99.90;;;;;;5113742;28;20244;-80
2022/11/07 08:09:14;;;;;;;0.60;0.60;;;8.30;99.90;;;;;;5113559;28;20266;-81
2022/11/07 08:11:39;;;;;;;0.85;0.75;;;8.30;99.90;;;;;;5098748;28;20207;-80
2022/11/07 08:14:05;;;;;;;0.55;0.55;;;8.30;99.90;;;;;;5099524;28;20191;-81
2022/11/07 08:16:34;;;;;;;0.80;0.80;;;8.40;99.90;;;;;;5117364;28;20310;-80
2022/11/07 08:19:02;;;;;;;0.90;0.90;;;8.30;99.90;;;;;;5099284;28;20207;-81
2022/11/07 08:21:28;;;;;;;0.60;0.60;;;8.30;99.90;;;;;;5099560;28;20599;-81
2022/11/07 08:23:57;;;;;;;0.65;0.65;;;8.40;99.90;;;;;;5099245;28;20237;-80
2022/11/07 08:26:22;;;;;;;0.60;0.60;;;8.40;99.90;;;;;;5098879;28;20641;-80
2022/11/07 08:28:48;;;;;;;0.52;0.52;;;8.40;99.90;;;;;;5099224;28;20223;-80
2022/11/07 08:31:14;;;;;;;0.65;0.65;;;8.40;99.90;;;;;;5098942;28;20208;-80
2022/11/07 08:33:40;;;;;;;0.50;0.50;;;8.40;99.90;;;;;;5099128;28;20227;-80
2022/11/07 08:36:06;;;;;;;0.60;0.60;;;8.40;99.90;;;;;;5117534;28;20717;-80
2022/11/07 08:38:34;;;;;;;0.60;0.60;;;8.50;99.90;;;;;;5098695;28;20278;-80
2022/11/07 08:41:03;;;;;;;0.60;0.60;;;8.40;99.90;;;;;;5098892;28;20199;-80
2022/11/07 08:43:29;;;;;;;1.30;0.77;;;8.40;99.90;;;;;;5099080;28;20673;-80
2022/11/07 08:45:58;;;;;;;0.45;0.45;;;8.40;99.90;;;;;;5117666;28;20187;-81
2022/11/07 08:48:27;;;;;;;0.70;0.70;;;8.30;99.90;;;;;;5117600;28;20215;-80
2022/11/07 08:50:55;;;;;;;0.60;0.60;;;8.30;99.90;;;;;;5098759;28;20207;-81
2022/11/07 08:53:22;;;;;;;0.50;0.50;;;8.30;99.90;;;;;;5117560;28;20236;-81
2022/11/07 08:55:48;;;;;;;0.60;0.60;;;8.20;99.90;;;;;;5099611;28;20215;-81
2022/11/07 08:58:14;;;;;;;0.50;0.50;;;8.20;99.90;;;;;;5099947;28;20562;-81
2022/11/07 09:00:40;;;;;;;0.60;0.60;;;8.20;99.90;;;;;;5099634;28;20199;-81
2022/11/07 09:03:07;;;;;;;3.33;1.17;;;8.20;99.90;;;;;;5099174;28;20195;-81
2022/11/07 09:05:37;;;;;;;0.68;0.68;;;8.20;99.90;;;;;;5098273;28;20284;-82
2022/11/07 09:08:03;;;;;;;0.50;0.50;;;8.20;99.90;;;;;;5098835;28;20196;-81
2022/11/07 09:10:28;;;;;;;0.80;0.80;;;8.20;99.90;;;;;;5098135;28;20248;-81
2022/11/07 09:12:57;;;;;;;0.60;0.60;;;8.20;99.90;;;;;;5098651;28;20739;-79
2022/11/07 09:15:22;;;;;;;0.60;0.60;;;8.20;99.90;;;;;;5094646;28;20235;-81
2022/11/07 09:17:49;;;;;;;1.30;1.20;;;8.20;99.90;;;;;;5096224;28;20192;-80
2022/11/07 09:20:16;;;;;;;0.63;0.63;;;8.10;99.90;;;;;;5095437;28;20618;-80
2022/11/07 09:22:42;;;;;;;0.57;0.57;;;8.20;99.90;;;;;;5094256;28;20234;-81
2022/11/07 09:25:08;;;;;;;0.60;0.60;;;8.10;99.90;;;;;;5091683;28;20192;-82
2022/11/07 09:27:37;;;;;;;0.70;0.70;;;8.10;99.90;;;;;;5058109;28;20226;-81
2022/11/07 09:30:04;;;;;;;0.60;0.60;;;8.10;99.90;;;;;;5074836;28;20229;-81
2022/11/07 09:32:30;;;;;;;0.50;0.50;;;8.10;99.90;;;;;;5075163;28;20666;-81
2022/11/07 09:34:56;;;;;;;0.60;0.60;;;8.10;99.90;;;;;;5074738;28;20192;-81
2022/11/07 09:37:21;;;;;;;0.60;0.60;;;8.10;99.90;;;;;;5092050;28;20208;-82
2022/11/07 09:39:50;;;;;;;0.55;0.55;;;8.00;99.90;;;;;;5094947;28;20309;-82
2022/11/07 09:42:19;;;;;;;0.90;0.90;;;8.00;99.90;;;;;;5095782;28;20227;-83
2022/11/07 09:45:01;;;;;;;0.55;0.55;;;8.00;99.90;;;;;;5096163;28;20263;-84
2022/11/07 09:47:37;;;;;;;0.50;0.50;;;8.00;99.90;;;;;;5095540;28;20196;-83
2022/11/07 09:50:13;;;;;;;0.50;0.50;;;8.00;99.90;;;;;;5096375;28;20291;-83
2022/11/07 09:52:48;;;;;;;0.60;0.60;;;8.00;99.90;;;;;;5094478;28;20204;-82
2022/11/07 09:55:23;;;;;;;0.55;0.55;;;8.00;99.90;;;;;;5095475;28;20268;-81
2022/11/07 09:57:53;;;;;;;0.55;0.55;;;7.90;99.90;;;;;;5095367;28;20195;-82
2022/11/07 10:00:21;;;;;;;1.42;1.33;;;7.90;99.90;;;;;;5095317;28;20207;-83
2022/11/07 10:02:54;;;;;;;0.50;0.50;;;7.90;99.90;;;;;;5096643;28;20680;-82
2022/11/07 10:05:47;;;;;;;0.98;0.98;;;7.90;99.90;;;;;;5095108;28;20212;-82
2022/11/07 10:08:27;;;;;;;1.35;1.17;;;7.90;99.90;;;;;;5076955;28;20197;-81
2022/11/07 10:11:13;;;;;;;0.60;0.60;;;7.90;99.90;;;;;;5075069;28;20679;-81
2022/11/07 10:13:57;;;;;;;0.68;0.68;;;8.00;99.90;;;;;;5082368;28;20219;-82
2022/11/07 10:16:31;;;;;;;0.63;0.63;;;8.00;99.90;;;;;;5094271;28;20311;-82
2022/11/07 10:19:21;;;;;;;0.50;0.50;;;8.00;99.90;;;;;;5095969;28;20677;-81
2022/11/07 10:22:37;;;;;;;0.60;0.60;;;8.00;99.90;;;;;;5094376;28;20226;-81
2022/11/07 10:25:18;;;;;;;0.65;0.65;;;8.00;99.90;;;;;;5091123;28;20560;-81
2022/11/07 10:28:13;;;;;;;0.60;0.60;;;7.90;99.90;;;;;;5094728;28;20642;-80
2022/11/07 10:30:42;;;;;;;0.60;0.60;;;8.00;99.90;;;;;;5093834;28;20226;-80
2022/11/07 10:33:22;;;;;;;0.75;0.75;;;8.00;99.90;;;;;;5094466;28;20198;-82
2022/11/07 10:35:55;;;;;;;0.60;0.60;;;8.00;99.90;;;;;;5094361;28;20557;-80
2022/11/07 10:38:29;;;;;;;0.60;0.60;;;8.00;99.90;;;;;;5093989;28;20283;-81
2022/11/07 10:41:03;;;;;;;1.08;1.08;;;8.00;99.90;;;;;;5093697;28;20670;-80
2022/11/07 10:43:37;;;;;;;0.60;0.60;;;8.00;99.90;;;;;;5093594;28;20752;-80
2022/11/07 10:46:09;;;;;;;0.60;0.60;;;8.10;99.90;;;;;;5094125;28;20204;-81
2022/11/07 10:48:34;;;;;;;0.50;0.50;;;8.00;99.90;;;;;;5095606;28;20748;-81
2022/11/07 10:51:00;;;;;;;0.60;0.60;;;8.00;99.90;;;;;;5094051;28;20216;-80
2022/11/07 10:53:26;;;;;;;0.43;0.43;;;8.10;99.90;;;;;;5093276;28;20282;-80
2022/11/07 10:55:57;;;;;;;0.50;0.50;;;8.10;99.90;;;;;;5093700;28;20196;-80
2022/11/07 10:58:33;;;;;;;0.88;0.88;;;8.10;99.90;;;;;;5093152;28;20555;-80
2022/11/07 11:01:04;;;;;;;12.68;2.13;;;8.10;99.90;;;;;;5093149;28;20686;-79
2022/11/07 11:03:32;;;;;;;0.60;0.60;;;8.20;99.90;;;;;;5072824;28;20207;-79
2022/11/07 11:06:10;;;;;;;2.08;1.10;;;8.30;99.90;;;;;;5072394;28;20687;-79
2022/11/07 11:08:37;;;;;;;0.47;0.47;;;8.30;99.90;;;;;;5073809;28;20203;-79
2022/11/07 11:11:23;;;;;;;0.60;0.60;;;8.40;99.90;;;;;;5074496;28;20244;-77
2022/11/07 11:14:01;;;;;;;0.50;0.50;;;8.40;99.90;;;;;;5092927;28;20727;-77
2022/11/07 11:16:31;;;;;;;0.50;0.50;;;8.50;99.90;;;;;;5092520;28;20219;-78
2022/11/07 11:19:00;;;;;;;0.77;0.70;;;8.50;99.90;;;;;;5093424;28;20662;-80
2022/11/07 11:21:36;;;;;;;0.60;0.60;;;8.60;99.90;;;;;;5092842;28;20202;-79
2022/11/07 11:24:36;;;;;;;0.70;0.70;;;8.60;99.90;;;;;;5093058;28;20214;-79
2022/11/07 11:27:23;;;;;;;0.60;0.60;;;8.60;99.90;;;;;;5092872;28;20647;-78
2022/11/07 11:30:10;;;;;;;0.60;0.60;;;8.70;99.90;;;;;;5092732;28;20243;-79
2022/11/07 11:32:41;;;;;;;0.60;0.60;;;8.80;99.90;;;;;;5092973;28;20673;-79
2022/11/07 11:35:17;;;;;;;0.63;0.63;;;8.70;99.90;;;;;;5093143;28;20187;-79
2022/11/07 11:37:50;;;;;;;0.63;0.63;;;8.70;99.90;;;;;;5092871;28;20191;-79
2022/11/07 11:40:20;;;;;;;1.77;1.50;;;8.70;99.90;;;;;;5092587;28;20192;-80
2022/11/07 11:43:10;;;;;;;2.05;1.65;;;8.80;99.90;;;;;;5092600;28;20246;-79
2022/11/07 11:45:39;;;;;;;0.52;0.52;;;8.90;99.90;;;;;;5092884;28;20196;-79
2022/11/07 11:48:15;;;;;;;0.50;0.50;;;8.90;99.90;;;;;;5092685;28;20219;-79
2022/11/07 11:50:49;;;;;;;0.55;0.55;;;9.10;99.90;;;;;;5092280;28;20215;-80
2022/11/07 11:53:19;;;;;;;0.65;0.65;;;9.10;99.90;;;;;;5092742;28;20214;-78
2022/11/07 11:55:57;;;;;;;0.50;0.50;;;9.10;99.90;;;;;;5093528;28;20230;-81
2022/11/07 11:58:38;;;;;;;0.50;0.50;;;9.20;99.90;;;;;;5076324;28;20318;-80
2022/11/07 12:01:41;;;;;;;0.70;0.70;;;9.20;99.90;;;;;;5093285;28;20198;-80
2022/11/07 12:04:38;;;;;;;0.70;0.68;;;9.20;99.90;;;;;;5031555;28;20279;-79
2022/11/07 12:07:16;;;;;;;0.70;0.70;;;9.20;99.90;;;;;;5092354;28;20196;-80
2022/11/07 12:09:53;;;;;;;0.68;0.68;;;9.20;99.90;;;;;;5093449;28;20185;-80
2022/11/07 12:12:33;;;;;;;0.50;0.50;;;9.20;99.90;;;;;;5091842;28;20744;-80
2022/11/07 12:15:32;;;;;;;0.57;0.57;;;9.20;99.90;;;;;;5092193;28;20238;-80
2022/11/07 12:18:15;;;;;;;0.60;0.60;;;9.20;99.90;;;;;;5092252;28;20534;-79
2022/11/07 12:20:55;;;;;;;0.50;0.50;;;9.20;99.90;;;;;;5092399;28;20204;-80
2022/11/07 12:23:44;;;;;;;0.60;0.60;;;9.20;99.90;;;;;;5092139;28;20666;-80
2022/11/07 12:26:32;;;;;;;0.60;0.60;;;9.20;99.90;;;;;;5091884;28;20261;-79
2022/11/07 12:29:23;;;;;;;0.60;0.60;;;9.20;99.90;;;;;;5090832;28;20208;-79
2022/11/07 12:31:57;;;;;;;0.52;0.52;;;9.30;99.90;;;;;;5092001;28;20216;-78
2022/11/07 12:34:37;;;;;;;0.50;0.50;;;9.40;99.90;;;;;;5092060;28;20203;-80
2022/11/07 12:37:25;;;;;;;0.70;0.70;;;9.40;99.90;;;;;;5093209;28;20546;-79
2022/11/07 12:39:51;;;;;;;0.60;0.60;;;9.40;99.90;;;;;;5092879;28;20685;-80
2022/11/07 12:42:49;;;;;;;0.70;0.70;;;9.40;99.90;;;;;;5092726;28;20196;-79
2022/11/07 12:45:44;;;;;;;0.60;0.60;;;9.40;99.90;;;;;;5088108;28;20683;-80
2022/11/07 12:48:10;;;;;;;0.60;0.60;;;9.40;99.90;;;;;;5094634;28;20245;-79
2022/11/07 12:51:02;;;;;;;0.68;0.68;;;9.40;99.90;;;;;;5094470;28;20204;-80
2022/11/07 12:53:46;;;;;;;0.57;0.57;;;9.40;99.90;;;;;;5092737;28;20253;-79
2022/11/07 12:56:29;;;;;;;0.60;0.60;;;9.40;99.90;;;;;;5076161;28;20346;-81
2022/11/07 12:58:56;;;;;;;0.60;0.60;;;9.40;99.90;;;;;;5076457;28;20715;-80
2022/11/07 13:01:29;;;;;;;1.08;0.98;;;9.40;99.90;;;;;;5043275;28;20200;-79
2022/11/07 13:04:15;;;;;;;0.60;0.60;;;9.40;99.90;;;;;;5096446;28;20254;-79
2022/11/07 13:06:58;;;;;;;0.90;0.90;;;9.40;99.90;;;;;;5096045;28;20287;-81
2022/11/07 13:09:39;;;;;;;0.60;0.60;;;9.40;99.90;;;;;;5096416;28;20218;-79
2022/11/07 13:12:20;;;;;;;0.50;0.50;;;9.40;99.90;;;;;;5095902;28;20199;-80
2022/11/07 13:14:50;;;;;;;0.70;0.70;;;9.40;99.90;;;;;;5101960;28;20208;-80
2022/11/07 13:17:29;;;;;;;0.60;0.60;;;9.40;99.90;;;;;;5098842;28;20253;-79
2022/11/07 13:20:04;;;;;;;0.60;0.60;;;9.40;99.90;;;;;;5097966;28;20197;-79
2022/11/07 13:22:36;;;;;;;0.60;0.60;;;9.40;99.90;;;;;;5098173;28;20654;-80
2022/11/07 13:25:14;;;;;;;0.50;0.50;;;9.40;99.90;;;;;;5081717;28;20714;-79
2022/11/07 13:28:19;;;;;;;0.57;0.57;;;9.40;99.90;;;;;;5098431;28;20195;-80